Libby, Montana
Current Conditions -  °F | °C
As of 7:15 AM on Thursday 23 Oct 2014 (Local Time) from K65S Reporting Station
Broken Clouds Broken Clouds  
Wind Chill: 48°   Ceiling: 6500
Heat Index: 48°   Visibility: 10mi
Dew Point: 48°   Wind: 0mph
Humidity: 100%   Direction: NA
Pressure: 29.76"   Gusts: NA
Location:  48.39°N, 115.56°W
Report Text: K65S 231315Z AUTO 00000KT 10SM FEW041 SCT049 BKN065 09/09 A2976 RMK AO2
Loading
Personal Weather Stations






























Interactive Weather Map
Tropical Storm Tracking
New forecast layout! Learn more

10-Day Weather Forecast

Advertisements
Track Severe Weather on mobile